sensor_id;sensor_type;location;lat;lon;timestamp;pressure;altitude;pressure_sealevel;temperature;humidity
4123;BME280;2075;51.062;6.920;2023-03-01T00:00:00;94895.50;;;-144.48;100.00
4123;BME280;2075;51.062;6.920;2023-03-01T00:02:55;94867.06;;;-144.48;100.00
4123;BME280;2075;51.062;6.920;2023-03-01T00:05:45;94964.59;;;-144.48;100.00
4123;BME280;2075;51.062;6.920;2023-03-01T00:08:30;95009.31;;;-144.48;100.00
4123;BME280;2075;51.062;6.920;2023-03-01T00:11:19;94934.13;;;-144.48;100.00
4123;BME280;2075;51.062;6.920;2023-03-01T00:14:04;94891.44;;;-144.48;100.00
4123;BME280;2075;51.062;6.920;2023-03-01T00:16:50;94728.88;;;-144.48;100.00
4123;BME280;2075;51.062;6.920;2023-03-01T00:19:36;94485.06;;;-144.48;100.00
4123;BME280;2075;51.062;6.920;2023-03-01T00:22:22;94062.47;;;-144.48;100.00
4123;BME280;2075;51.062;6.920;2023-03-01T00:25:08;93083.41;;;-144.48;100.00
4123;BME280;2075;51.062;6.920;2023-03-01T00:27:53;92204.13;;;-144.48;100.00
4123;BME280;2075;51.062;6.920;2023-03-01T00:30:38;90259.50;;;-144.48;100.00
4123;BME280;2075;51.062;6.920;2023-03-01T00:33:24;88871.72;;;-144.48;100.00
4123;BME280;2075;51.062;6.920;2023-03-01T00:36:11;89520.91;;;-144.48;100.00
4123;BME280;2075;51.062;6.920;2023-03-01T00:38:59;90862.25;;;-144.48;100.00
4123;BME280;2075;51.062;6.920;2023-03-01T00:41:44;91148.44;;;-144.48;100.00
4123;BME280;2075;51.062;6.920;2023-03-01T00:44:29;89545.25;;;-144.48;100.00
4123;BME280;2075;51.062;6.920;2023-03-01T00:47:14;88105.03;;;-144.48;100.00
4123;BME280;2075;51.062;6.920;2023-03-01T00:50:00;84693.53;;;-144.48;100.00
4123;BME280;2075;51.062;6.920;2023-03-01T00:52:46;83875.09;;;-144.48;100.00
4123;BME280;2075;51.062;6.920;2023-03-01T00:55:32;83798.13;;;-144.48;100.00
4123;BME280;2075;51.062;6.920;2023-03-01T00:58:18;84932.59;;;-144.48;100.00
4123;BME280;2075;51.062;6.920;2023-03-01T01:01:07;85747.22;;;-144.48;100.00
4123;BME280;2075;51.062;6.920;2023-03-01T01:04:03;83840.66;;;-144.48;100.00
4123;BME280;2075;51.062;6.920;2023-03-01T01:06:49;82273.25;;;-144.48;100.00
4123;BME280;2075;51.062;6.920;2023-03-01T01:09:34;80927.16;;;-144.48;100.00
4123;BME280;2075;51.062;6.920;2023-03-01T01:12:21;82190.25;;;-144.48;100.00
4123;BME280;2075;51.062;6.920;2023-03-01T01:15:08;82988.03;;;-144.48;100.00
4123;BME280;2075;51.062;6.920;2023-03-01T01:17:56;84592.22;;;-144.48;100.00
4123;BME280;2075;51.062;6.920;2023-03-01T01:20:41;82097.13;;;-144.48;100.00
4123;BME280;2075;51.062;6.920;2023-03-01T01:23:27;82338.03;;;-144.48;100.00
4123;BME280;2075;51.062;6.920;2023-03-01T01:26:14;85451.34;;;-144.48;100.00
4123;BME280;2075;51.062;6.920;2023-03-01T01:29:03;84134.38;;;-144.48;100.00
4123;BME280;2075;51.062;6.920;2023-03-01T01:31:49;84606.41;;;-144.48;100.00
4123;BME280;2075;51.062;6.920;2023-03-01T01:34:34;84049.31;;;-144.48;100.00
4123;BME280;2075;51.062;6.920;2023-03-01T01:37:20;79583.59;;;-144.48;100.00
4123;BME280;2075;51.062;6.920;2023-03-01T01:40:07;75172.16;;;-144.48;100.00
4123;BME280;2075;51.062;6.920;2023-03-01T01:42:52;73033.19;;;-144.48;100.00
4123;BME280;2075;51.062;6.920;2023-03-01T01:45:41;73370.41;;;-144.48;100.00
4123;BME280;2075;51.062;6.920;2023-03-01T01:48:29;75107.50;;;-144.48;100.00
4123;BME280;2075;51.062;6.920;2023-03-01T01:51:27;77120.41;;;-144.48;100.00
4123;BME280;2075;51.062;6.920;2023-03-01T01:54:25;74885.25;;;-144.48;100.00
4123;BME280;2075;51.062;6.920;2023-03-01T01:57:15;69709.19;;;-144.48;100.00
4123;BME280;2075;51.062;6.920;2023-03-01T02:00:06;66096.25;;;-144.48;100.00
4123;BME280;2075;51.062;6.920;2023-03-01T02:03:01;64033.44;;;-144.48;100.00
4123;BME280;2075;51.062;6.920;2023-03-01T02:05:52;65322.56;;;-144.48;100.00
4123;BME280;2075;51.062;6.920;2023-03-01T02:08:42;69967.41;;;-144.48;100.00
4123;BME280;2075;51.062;6.920;2023-03-01T02:11:30;76499.84;;;-144.48;100.00
4123;BME280;2075;51.062;6.920;2023-03-01T02:14:16;77672.34;;;-144.48;100.00
4123;BME280;2075;51.062;6.920;2023-03-01T02:17:01;81414.91;;;-144.48;100.00
4123;BME280;2075;51.062;6.920;2023-03-01T02:19:59;79713.06;;;-144.48;100.00
4123;BME280;2075;51.062;6.920;2023-03-01T02:22:51;78564.13;;;-144.48;100.00
4123;BME280;2075;51.062;6.920;2023-03-01T02:25:46;77253.84;;;-144.48;100.00
4123;BME280;2075;51.062;6.920;2023-03-01T02:28:37;82821.97;;;-144.48;100.00
4123;BME280;2075;51.062;6.920;2023-03-01T02:31:23;82206.44;;;-144.48;100.00
4123;BME280;2075;51.062;6.920;2023-03-01T02:34:30;77674.38;;;-144.48;100.00
4123;BME280;2075;51.062;6.920;2023-03-01T02:37:17;72056.03;;;-144.48;100.00
4123;BME280;2075;51.062;6.920;2023-03-01T02:40:11;70742.19;;;-144.48;100.00
4123;BME280;2075;51.062;6.920;2023-03-01T02:43:01;69451.00;;;-144.48;100.00
4123;BME280;2075;51.062;6.920;2023-03-01T02:45:51;66354.19;;;-144.48;100.00
4123;BME280;2075;51.062;6.920;2023-03-01T02:48:42;65064.69;;;-144.48;100.00
4123;BME280;2075;51.062;6.920;2023-03-01T02:51:42;64033.44;;;-144.48;100.00
4123;BME280;2075;51.062;6.920;2023-03-01T02:54:37;61456.66;;;-144.48;100.00
4123;BME280;2075;51.062;6.920;2023-03-01T02:57:25;58881.84;;;-144.48;100.00
4123;BME280;2075;51.062;6.920;2023-03-01T03:00:14;58109.78;;;-144.48;100.00
4123;BME280;2075;51.062;6.920;2023-03-01T03:03:05;57080.63;;;-144.48;100.00
4123;BME280;2075;51.062;6.920;2023-03-01T03:05:50;57337.88;;;-144.48;100.00
4123;BME280;2075;51.062;6.920;2023-03-01T03:08:36;57852.44;;;-144.48;100.00
4123;BME280;2075;51.062;6.920;2023-03-01T03:11:21;55280.38;;;-144.48;100.00
4123;BME280;2075;51.062;6.920;2023-03-01T03:14:08;53481.06;;;-144.48;100.00
4123;BME280;2075;51.062;6.920;2023-03-01T03:16:56;50655.50;;;-144.48;100.00
4123;BME280;2075;51.062;6.920;2023-03-01T03:19:43;46293.41;;;-144.48;100.00
4123;BME280;2075;51.062;6.920;2023-03-01T03:22:29;43730.06;;;-144.48;100.00
4123;BME280;2075;51.062;6.920;2023-03-01T03:25:14;41680.84;;;-144.48;100.00
4123;BME280;2075;51.062;6.920;2023-03-01T03:28:00;43473.84;;;-144.48;100.00
4123;BME280;2075;51.062;6.920;2023-03-01T03:30:45;49371.94;;;-144.48;100.00
4123;BME280;2075;51.062;6.920;2023-03-01T03:33:31;49628.63;;;-144.48;100.00
4123;BME280;2075;51.062;6.920;2023-03-01T03:36:18;49371.94;;;-144.48;100.00
4123;BME280;2075;51.062;6.920;2023-03-01T03:39:04;48602.03;;;-144.48;100.00
4123;BME280;2075;51.062;6.920;2023-03-01T03:41:49;47832.31;;;-144.48;100.00
4123;BME280;2075;51.062;6.920;2023-03-01T03:44:35;47319.28;;;-144.48;100.00
4123;BME280;2075;51.062;6.920;2023-03-01T03:47:21;49115.28;;;-144.48;100.00
4123;BME280;2075;51.062;6.920;2023-03-01T03:50:07;51169.06;;;-144.48;100.00
4123;BME280;2075;51.062;6.920;2023-03-01T03:52:54;52196.44;;;-144.48;100.00
4123;BME280;2075;51.062;6.920;2023-03-01T03:55:39;52710.22;;;-144.48;100.00
4123;BME280;2075;51.062;6.920;2023-03-01T03:58:25;53481.06;;;-144.48;100.00
4123;BME280;2075;51.062;6.920;2023-03-01T04:01:11;53224.09;;;-144.48;100.00
4123;BME280;2075;51.062;6.920;2023-03-01T04:03:56;53738.03;;;-144.48;100.00
4123;BME280;2075;51.062;6.920;2023-03-01T04:06:48;59396.66;;;-144.48;100.00
4123;BME280;2075;51.062;6.920;2023-03-01T04:09:34;61456.66;;;-144.48;100.00
4123;BME280;2075;51.062;6.920;2023-03-01T04:12:20;57080.63;;;-144.48;100.00
4123;BME280;2075;51.062;6.920;2023-03-01T04:15:07;51939.56;;;-144.48;100.00
4123;BME280;2075;51.062;6.920;2023-03-01T04:17:58;50142.03;;;-144.48;100.00
4123;BME280;2075;51.062;6.920;2023-03-01T04:20:44;47062.78;;;-144.48;100.00
4123;BME280;2075;51.062;6.920;2023-03-01T04:23:29;45524.19;;;-144.48;100.00
4123;BME280;2075;51.062;6.920;2023-03-01T04:26:16;45011.50;;;-144.48;100.00
4123;BME280;2075;51.062;6.920;2023-03-01T04:29:01;41168.72;;;-144.48;100.00
4123;BME280;2075;51.062;6.920;2023-03-01T04:31:47;38097.66;;;-144.48;100.00
4123;BME280;2075;51.062;6.920;2023-03-01T04:34:33;35029.38;;;-144.48;100.00
4123;BME280;2075;51.062;6.920;2023-03-01T04:37:18;33240.88;;;-144.48;100.00
4123;BME280;2075;51.062;6.920;2023-03-01T04:40:04;30687.50;;;-144.48;100.00
4123;BME280;2075;51.062;6.920;2023-03-01T04:43:01;29156.41;;;-144.48;100.00
4123;BME280;2075;51.062;6.920;2023-03-01T04:45:47;25586.63;;;-144.48;100.00
4123;BME280;2075;51.062;6.920;2023-03-01T04:48:32;23548.44;;;-144.48;100.00
4123;BME280;2075;51.062;6.920;2023-03-01T04:51:17;21511.53;;;-144.48;100.00
4123;BME280;2075;51.062;6.920;2023-03-01T04:54:03;21766.06;;;-144.48;100.00
4123;BME280;2075;51.062;6.920;2023-03-01T04:56:53;21511.53;;;-144.48;100.00
4123;BME280;2075;51.062;6.920;2023-03-01T04:59:39;21002.47;;;-144.48;100.00
4123;BME280;2075;51.062;6.920;2023-03-01T05:02:25;21766.06;;;-144.48;100.00
4123;BME280;2075;51.062;6.920;2023-03-01T05:05:10;22020.63;;;-144.48;100.00
4123;BME280;2075;51.062;6.920;2023-03-01T05:07:58;20239.06;;;-144.48;100.00
4123;BME280;2075;51.062;6.920;2023-03-01T05:10:45;21002.47;;;-144.48;100.00
4123;BME280;2075;51.062;6.920;2023-03-01T05:13:31;21002.47;;;-144.48;100.00
4123;BME280;2075;51.062;6.920;2023-03-01T05:16:18;22275.22;;;-144.48;100.00
4123;BME280;2075;51.062;6.920;2023-03-01T05:19:04;22020.63;;;-144.48;100.00
4123;BME280;2075;51.062;6.920;2023-03-01T05:21:55;21257.00;;;-144.48;100.00
4123;BME280;2075;51.062;6.920;2023-03-01T05:24:49;20239.06;;;-144.48;100.00
4123;BME280;2075;51.062;6.920;2023-03-01T05:27:35;20493.53;;;-144.48;100.00
4123;BME280;2075;51.062;6.920;2023-03-01T05:30:21;21002.47;;;-144.48;100.00
4123;BME280;2075;51.062;6.920;2023-03-01T05:33:08;20239.06;;;-144.48;100.00
4123;BME280;2075;51.062;6.920;2023-03-01T05:36:00;20748.00;;;-144.48;100.00
4123;BME280;2075;51.062;6.920;2023-03-01T05:38:45;19984.66;;;-144.48;100.00
4123;BME280;2075;51.062;6.920;2023-03-01T05:41:30;19730.22;;;-144.48;100.00
4123;BME280;2075;51.062;6.920;2023-03-01T05:44:16;17695.66;;;-144.48;100.00
4123;BME280;2075;51.062;6.920;2023-03-01T05:47:01;16678.81;;;-144.48;100.00
4123;BME280;2075;51.062;6.920;2023-03-01T05:49:48;16678.81;;;-144.48;100.00
4123;BME280;2075;51.062;6.920;2023-03-01T05:52:34;17695.66;;;-144.48;100.00
4123;BME280;2075;51.062;6.920;2023-03-01T05:55:21;18458.47;;;-144.48;100.00
4123;BME280;2075;51.062;6.920;2023-03-01T05:58:09;19475.84;;;-144.48;100.00
4123;BME280;2075;51.062;6.920;2023-03-01T06:00:55;20239.06;;;-144.48;100.00
4123;BME280;2075;51.062;6.920;2023-03-01T06:03:40;20239.06;;;-144.48;100.00
4123;BME280;2075;51.062;6.920;2023-03-01T06:06:27;21002.47;;;-144.48;100.00
4123;BME280;2075;51.062;6.920;2023-03-01T06:09:13;21766.06;;;-144.48;100.00
4123;BME280;2075;51.062;6.920;2023-03-01T06:11:58;25331.78;;;-144.48;100.00
4123;BME280;2075;51.062;6.920;2023-03-01T06:14:45;25076.94;;;-144.48;100.00
4123;BME280;2075;51.062;6.920;2023-03-01T06:17:33;24822.16;;;-144.48;100.00
4123;BME280;2075;51.062;6.920;2023-03-01T06:20:23;24312.59;;;-144.48;100.00
4123;BME280;2075;51.062;6.920;2023-03-01T06:23:10;25076.94;;;-144.48;100.00
4123;BME280;2075;51.062;6.920;2023-03-01T06:25:55;25841.47;;;-144.48;100.00
4123;BME280;2075;51.062;6.920;2023-03-01T06:28:41;26096.34;;;-144.48;100.00
4123;BME280;2075;51.062;6.920;2023-03-01T06:31:26;25586.63;;;-144.48;100.00
4123;BME280;2075;51.062;6.920;2023-03-01T06:34:12;26351.25;;;-144.48;100.00
4123;BME280;2075;51.062;6.920;2023-03-01T06:36:58;29411.56;;;-144.48;100.00
4123;BME280;2075;51.062;6.920;2023-03-01T06:39:44;31198.03;;;-144.48;100.00
4123;BME280;2075;51.062;6.920;2023-03-01T06:42:30;33496.31;;;-144.48;100.00
4123;BME280;2075;51.062;6.920;2023-03-01T06:45:16;38865.16;;;-144.48;100.00
4123;BME280;2075;51.062;6.920;2023-03-01T06:48:03;42705.31;;;-144.48;100.00
4123;BME280;2075;51.062;6.920;2023-03-01T06:50:49;45780.56;;;-144.48;100.00
4123;BME280;2075;51.062;6.920;2023-03-01T06:53:34;48858.66;;;-144.48;100.00
4123;BME280;2075;51.062;6.920;2023-03-01T06:56:21;51169.06;;;-144.48;100.00
4123;BME280;2075;51.062;6.920;2023-03-01T06:59:07;64033.44;;;-144.48;100.00
4123;BME280;2075;51.062;6.920;2023-03-01T07:01:52;94797.97;;;-144.48;83.82
4123;BME280;2075;51.062;6.920;2023-03-01T07:04:37;94499.28;;;-144.48;53.35
4123;BME280;2075;51.062;6.920;2023-03-01T07:07:23;94379.41;;;-144.48;45.92
4123;BME280;2075;51.062;6.920;2023-03-01T07:10:09;94206.72;;;-144.48;41.16
4123;BME280;2075;51.062;6.920;2023-03-01T07:12:57;94164.06;;;-144.48;38.60
4123;BME280;2075;51.062;6.920;2023-03-01T07:15:43;94235.16;;;-144.48;38.26
4123;BME280;2075;51.062;6.920;2023-03-01T07:18:28;94259.53;;;-144.48;37.61
4123;BME280;2075;51.062;6.920;2023-03-01T07:21:14;94160.00;;;-144.48;36.23
4123;BME280;2075;51.062;6.920;2023-03-01T07:24:00;94283.91;;;-144.48;35.52
4123;BME280;2075;51.062;6.920;2023-03-01T07:26:48;94684.19;;;-144.48;39.93
4123;BME280;2075;51.062;6.920;2023-03-01T07:29:38;94895.50;;;-144.48;45.43
4123;BME280;2075;51.062;6.920;2023-03-01T07:32:23;94984.91;;;-144.48;54.33
4123;BME280;2075;51.062;6.920;2023-03-01T07:35:09;95070.25;;;-144.48;61.13
4123;BME280;2075;51.062;6.920;2023-03-01T07:37:54;95080.44;;;-144.48;68.99
4123;BME280;2075;51.062;6.920;2023-03-01T07:40:40;94988.97;;;-144.48;73.09
4123;BME280;2075;51.062;6.920;2023-03-01T07:43:25;95149.53;;;-144.48;76.79
4123;BME280;2075;51.062;6.920;2023-03-01T07:46:12;95131.22;;;-144.48;78.97
4123;BME280;2075;51.062;6.920;2023-03-01T07:48:58;95112.94;;;-144.48;81.58
4123;BME280;2075;51.062;6.920;2023-03-01T07:51:43;95049.94;;;-144.48;81.75
4123;BME280;2075;51.062;6.920;2023-03-01T07:54:29;95125.13;;;-144.48;82.39
4123;BME280;2075;51.062;6.920;2023-03-01T07:57:14;95149.53;;;-144.48;83.04
4123;BME280;2075;51.062;6.920;2023-03-01T07:59:59;95123.09;;;-144.48;82.83
4123;BME280;2075;51.062;6.920;2023-03-01T08:02:59;95135.28;;;-144.48;80.19
4123;BME280;2075;51.062;6.920;2023-03-01T08:05:45;95145.47;;;-144.48;75.23
4123;BME280;2075;51.062;6.920;2023-03-01T08:08:31;95175.94;;;-144.48;76.49
4123;BME280;2075;51.062;6.920;2023-03-01T08:11:16;95133.25;;;-144.48;73.30
4123;BME280;2075;51.062;6.920;2023-03-01T08:14:02;95106.84;;;-144.48;72.90
4123;BME280;2075;51.062;6.920;2023-03-01T08:16:49;95131.22;;;-144.48;72.33
4123;BME280;2075;51.062;6.920;2023-03-01T08:19:35;95123.09;;;-144.48;70.71
4123;BME280;2075;51.062;6.920;2023-03-01T08:22:21;95106.84;;;-144.48;70.35
4123;BME280;2075;51.062;6.920;2023-03-01T08:25:07;95112.94;;;-144.48;69.57
4123;BME280;2075;51.062;6.920;2023-03-01T08:27:52;95112.94;;;-144.48;69.15
4123;BME280;2075;51.062;6.920;2023-03-01T08:30:38;95106.84;;;-144.48;68.36
4123;BME280;2075;51.062;6.920;2023-03-01T08:33:23;95131.22;;;-144.48;65.56
4123;BME280;2075;51.062;6.920;2023-03-01T08:36:10;95104.81;;;-144.48;64.59
4123;BME280;2075;51.062;6.920;2023-03-01T08:38:56;94968.66;;;-144.48;64.41
4123;BME280;2075;51.062;6.920;2023-03-01T08:41:42;95135.28;;;-144.48;64.67
4123;BME280;2075;51.062;6.920;2023-03-01T08:44:27;95062.13;;;-144.48;63.61
4123;BME280;2075;51.062;6.920;2023-03-01T08:47:13;95200.31;;;-144.48;63.00
4123;BME280;2075;51.062;6.920;2023-03-01T08:49:59;95064.16;;;-144.48;61.48
4123;BME280;2075;51.062;6.920;2023-03-01T08:52:46;95064.16;;;-144.48;60.74
4123;BME280;2075;51.062;6.920;2023-03-01T08:55:31;95035.72;;;-144.48;60.56
4123;BME280;2075;51.062;6.920;2023-03-01T08:58:16;95043.84;;;-144.48;60.25
4123;BME280;2075;51.062;6.920;2023-03-01T09:01:06;95021.50;;;-144.48;59.51
4123;BME280;2075;51.062;6.920;2023-03-01T09:03:52;95047.91;;;-144.48;58.86
4123;BME280;2075;51.062;6.920;2023-03-01T09:06:37;95029.63;;;-144.48;58.37
4123;BME280;2075;51.062;6.920;2023-03-01T09:09:24;95033.69;;;-144.48;57.56
4123;BME280;2075;51.062;6.920;2023-03-01T09:12:10;95033.69;;;-144.48;57.13
4123;BME280;2075;51.062;6.920;2023-03-01T09:14:55;95025.56;;;-144.48;56.95
4123;BME280;2075;51.062;6.920;2023-03-01T09:17:41;95025.56;;;-144.48;56.66
4123;BME280;2075;51.062;6.920;2023-03-01T09:20:27;95005.25;;;-144.48;56.62
4123;BME280;2075;51.062;6.920;2023-03-01T09:23:13;94988.97;;;-144.48;56.51
4123;BME280;2075;51.062;6.920;2023-03-01T09:26:01;95005.25;;;-144.48;53.58
4123;BME280;2075;51.062;6.920;2023-03-01T09:28:48;94940.22;;;-144.48;53.49
4123;BME280;2075;51.062;6.920;2023-03-01T09:31:34;94978.81;;;-144.48;53.30
4123;BME280;2075;51.062;6.920;2023-03-01T09:34:19;94968.66;;;-144.48;53.55
4123;BME280;2075;51.062;6.920;2023-03-01T09:37:07;95009.31;;;-144.48;53.61
4123;BME280;2075;51.062;6.920;2023-03-01T09:39:53;95003.22;;;-144.48;53.06
4123;BME280;2075;51.062;6.920;2023-03-01T09:42:46;94988.97;;;-144.48;53.48
4123;BME280;2075;51.062;6.920;2023-03-01T09:45:34;94948.34;;;-144.48;52.88
4123;BME280;2075;51.062;6.920;2023-03-01T09:48:23;94976.78;;;-144.48;52.61
4123;BME280;2075;51.062;6.920;2023-03-01T09:51:12;94915.81;;;-144.48;53.22
4123;BME280;2075;51.062;6.920;2023-03-01T09:54:01;94956.47;;;-144.48;51.66
4123;BME280;2075;51.062;6.920;2023-03-01T09:56:57;94958.50;;;-144.48;51.06
4123;BME280;2075;51.062;6.920;2023-03-01T10:00:11;94964.59;;;-144.48;50.42
4123;BME280;2075;51.062;6.920;2023-03-01T10:03:06;94980.84;;;-144.48;49.77
4123;BME280;2075;51.062;6.920;2023-03-01T10:05:59;94952.41;;;-144.48;50.65
4123;BME280;2075;51.062;6.920;2023-03-01T10:08:51;94938.19;;;-144.48;49.96
4123;BME280;2075;51.062;6.920;2023-03-01T10:11:43;94930.06;;;-144.48;48.27
4123;BME280;2075;51.062;6.920;2023-03-01T10:14:35;94938.19;;;-144.48;47.90
4123;BME280;2075;51.062;6.920;2023-03-01T10:17:28;94911.75;;;-144.48;47.49
4123;BME280;2075;51.062;6.920;2023-03-01T10:20:19;94942.25;;;-144.48;47.93
4123;BME280;2075;51.062;6.920;2023-03-01T10:23:07;94897.53;;;-144.48;47.37
4123;BME280;2075;51.062;6.920;2023-03-01T10:26:07;94881.28;;;-144.48;47.28
4123;BME280;2075;51.062;6.920;2023-03-01T10:29:01;94968.66;;;-144.48;47.24
4123;BME280;2075;51.062;6.920;2023-03-01T10:31:49;94921.94;;;-144.48;47.53
4123;BME280;2075;51.062;6.920;2023-03-01T10:34:37;94856.91;;;-144.48;47.09
4123;BME280;2075;51.062;6.920;2023-03-01T10:37:23;94899.56;;;-144.48;46.50
4123;BME280;2075;51.062;6.920;2023-03-01T10:40:10;94919.91;;;-144.48;45.77
4123;BME280;2075;51.062;6.920;2023-03-01T10:42:58;94899.56;;;-144.48;46.35
4123;BME280;2075;51.062;6.920;2023-03-01T10:45:44;94879.25;;;-144.48;45.84
4123;BME280;2075;51.062;6.920;2023-03-01T10:48:30;94911.75;;;-144.48;46.06
4123;BME280;2075;51.062;6.920;2023-03-01T10:51:18;94926.00;;;-144.48;45.25
4123;BME280;2075;51.062;6.920;2023-03-01T10:54:05;94871.13;;;-144.48;45.86
4123;BME280;2075;51.062;6.920;2023-03-01T10:56:54;94899.56;;;-144.48;45.57
4123;BME280;2075;51.062;6.920;2023-03-01T10:59:40;94879.25;;;-144.48;45.74
4123;BME280;2075;51.062;6.920;2023-03-01T11:02:28;94804.06;;;-144.48;45.40
4123;BME280;2075;51.062;6.920;2023-03-01T11:05:21;94867.06;;;-144.48;45.54
4123;BME280;2075;51.062;6.920;2023-03-01T11:08:10;94891.44;;;-144.48;45.39
4123;BME280;2075;51.062;6.920;2023-03-01T11:11:04;94871.13;;;-144.48;44.27
4123;BME280;2075;51.062;6.920;2023-03-01T11:13:53;94846.75;;;-144.48;45.12
4123;BME280;2075;51.062;6.920;2023-03-01T11:16:40;94875.19;;;-144.48;44.24
4123;BME280;2075;51.062;6.920;2023-03-01T11:19:26;94887.38;;;-144.48;43.87
4123;BME280;2075;51.062;6.920;2023-03-01T11:22:12;94867.06;;;-144.48;43.85
4123;BME280;2075;51.062;6.920;2023-03-01T11:25:00;94871.13;;;-144.48;43.64
4123;BME280;2075;51.062;6.920;2023-03-01T11:27:46;94846.75;;;-144.48;44.40
4123;BME280;2075;51.062;6.920;2023-03-01T11:30:35;94895.50;;;-144.48;44.57
4123;BME280;2075;51.062;6.920;2023-03-01T11:33:35;94848.78;;;-144.48;43.68
4123;BME280;2075;51.062;6.920;2023-03-01T11:36:28;94869.09;;;-144.48;43.21
4123;BME280;2075;51.062;6.920;2023-03-01T11:39:23;94840.66;;;-144.48;43.74
4123;BME280;2075;51.062;6.920;2023-03-01T11:42:15;94871.13;;;-144.48;43.46
4123;BME280;2075;51.062;6.920;2023-03-01T11:45:08;94828.44;;;-144.48;43.22
4123;BME280;2075;51.062;6.920;2023-03-01T11:48:09;94816.25;;;-144.48;43.28
4123;BME280;2075;51.062;6.920;2023-03-01T11:51:05;94844.72;;;-144.48;43.28
4123;BME280;2075;51.062;6.920;2023-03-01T11:54:02;94808.13;;;-144.48;43.67
4123;BME280;2075;51.062;6.920;2023-03-01T11:56:53;94808.13;;;-144.48;43.18
4123;BME280;2075;51.062;6.920;2023-03-01T11:59:51;94793.91;;;-144.48;43.43
4123;BME280;2075;51.062;6.920;2023-03-01T12:03:19;94808.13;;;-144.48;43.15
4123;BME280;2075;51.062;6.920;2023-03-01T12:12:34;94789.84;;;-144.48;41.71
4123;BME280;2075;51.062;6.920;2023-03-01T12:18:59;94793.91;;;-144.48;41.16
4123;BME280;2075;51.062;6.920;2023-03-01T12:21:59;94761.41;;;-144.48;40.64
4123;BME280;2075;51.062;6.920;2023-03-01T12:25:16;94769.53;;;-144.48;41.14
4123;BME280;2075;51.062;6.920;2023-03-01T12:28:21;94741.06;;;-144.48;41.09
4123;BME280;2075;51.062;6.920;2023-03-01T12:37:48;94747.19;;;-144.48;40.00
4123;BME280;2075;51.062;6.920;2023-03-01T12:40:48;94728.88;;;-144.48;39.93
4123;BME280;2075;51.062;6.920;2023-03-01T12:43:47;94702.47;;;-144.48;40.48
4123;BME280;2075;51.062;6.920;2023-03-01T12:46:54;94741.06;;;-144.48;40.96
4123;BME280;2075;51.062;6.920;2023-03-01T12:49:49;94704.50;;;-144.48;39.80
4123;BME280;2075;51.062;6.920;2023-03-01T12:52:40;95082.47;;;-144.48;39.20
4123;BME280;2075;51.062;6.920;2023-03-01T12:55:29;94678.09;;;-144.48;39.01
4123;BME280;2075;51.062;6.920;2023-03-01T12:58:23;94692.31;;;-144.48;39.05
4123;BME280;2075;51.062;6.920;2023-03-01T13:01:16;94661.84;;;-144.48;39.33
4123;BME280;2075;51.062;6.920;2023-03-01T13:04:15;94615.09;;;-144.48;39.66
4123;BME280;2075;51.062;6.920;2023-03-01T13:10:19;94704.50;;;-144.48;37.83
4123;BME280;2075;51.062;6.920;2023-03-01T13:13:14;94702.47;;;-144.48;39.74
4123;BME280;2075;51.062;6.920;2023-03-01T13:19:25;94596.81;;;-144.48;42.71
4123;BME280;2075;51.062;6.920;2023-03-01T13:22:28;94692.31;;;-144.48;42.84
4123;BME280;2075;51.062;6.920;2023-03-01T13:25:18;94692.31;;;-144.48;43.03
4123;BME280;2075;51.062;6.920;2023-03-01T13:28:41;94657.78;;;-144.48;42.43
4123;BME280;2075;51.062;6.920;2023-03-01T13:31:59;94665.91;;;-144.48;42.18
4123;BME280;2075;51.062;6.920;2023-03-01T13:34:58;94676.06;;;-144.48;41.57
4123;BME280;2075;51.062;6.920;2023-03-01T13:37:44;94659.81;;;-144.48;42.66
4123;BME280;2075;51.062;6.920;2023-03-01T13:40:57;94684.19;;;-144.48;42.67
4123;BME280;2075;51.062;6.920;2023-03-01T13:43:45;94651.66;;;-144.48;42.33
4123;BME280;2075;51.062;6.920;2023-03-01T13:46:32;94653.69;;;-144.48;41.78
4123;BME280;2075;51.062;6.920;2023-03-01T13:49:21;94281.88;;;-144.48;40.34
4123;BME280;2075;51.062;6.920;2023-03-01T13:52:30;94659.81;;;-144.48;41.13
4123;BME280;2075;51.062;6.920;2023-03-01T13:55:20;94907.69;;;-144.48;40.92
4123;BME280;2075;51.062;6.920;2023-03-01T13:58:16;94613.06;;;-144.48;40.92
4123;BME280;2075;51.062;6.920;2023-03-01T14:01:06;94672.00;;;-144.48;40.70
4123;BME280;2075;51.062;6.920;2023-03-01T14:03:53;94627.28;;;-144.48;41.40
4123;BME280;2075;51.062;6.920;2023-03-01T14:06:39;94651.66;;;-144.48;41.55
4123;BME280;2075;51.062;6.920;2023-03-01T14:09:27;94690.28;;;-144.48;40.74
4123;BME280;2075;51.062;6.920;2023-03-01T14:12:26;94639.47;;;-144.48;40.82
4123;BME280;2075;51.062;6.920;2023-03-01T14:15:18;94635.41;;;-144.48;41.52
4123;BME280;2075;51.062;6.920;2023-03-01T14:18:07;94661.84;;;-144.48;41.59
4123;BME280;2075;51.062;6.920;2023-03-01T14:20:55;94678.09;;;-144.48;41.28
4123;BME280;2075;51.062;6.920;2023-03-01T14:23:41;94676.06;;;-144.48;42.00
4123;BME280;2075;51.062;6.920;2023-03-01T14:26:29;94714.66;;;-144.48;42.18
4123;BME280;2075;51.062;6.920;2023-03-01T14:29:27;94682.16;;;-144.48;43.05
4123;BME280;2075;51.062;6.920;2023-03-01T14:32:24;94667.94;;;-144.48;42.54
4123;BME280;2075;51.062;6.920;2023-03-01T14:35:20;94680.13;;;-144.48;42.70
4123;BME280;2075;51.062;6.920;2023-03-01T14:38:20;94684.19;;;-144.48;43.16
4123;BME280;2075;51.062;6.920;2023-03-01T14:41:08;94676.06;;;-144.48;43.19
4123;BME280;2075;51.062;6.920;2023-03-01T14:43:59;94651.66;;;-144.48;43.61
4123;BME280;2075;51.062;6.920;2023-03-01T14:46:45;94696.38;;;-144.48;43.55
4123;BME280;2075;51.062;6.920;2023-03-01T14:49:32;94732.94;;;-144.48;43.84
4123;BME280;2075;51.062;6.920;2023-03-01T14:52:20;94741.06;;;-144.48;43.79
4123;BME280;2075;51.062;6.920;2023-03-01T14:55:13;94688.25;;;-144.48;43.17
4123;BME280;2075;51.062;6.920;2023-03-01T14:58:03;94667.94;;;-144.48;42.85
4123;BME280;2075;51.062;6.920;2023-03-01T15:00:52;94444.44;;;-144.48;42.95
4123;BME280;2075;51.062;6.920;2023-03-01T15:03:41;94643.53;;;-144.48;42.84
4123;BME280;2075;51.062;6.920;2023-03-01T15:06:27;94674.03;;;-144.48;43.29
4123;BME280;2075;51.062;6.920;2023-03-01T15:09:15;94734.97;;;-144.48;43.27
4123;BME280;2075;51.062;6.920;2023-03-01T15:12:00;94690.28;;;-144.48;42.97